Pinchbeck, United Kingdom
Current Conditions -  °F | °C
As of 9:50 AM on Sunday 26 Oct 2014 (Local Time) from EGXT Reporting Station
Overcast Overcast  
Wind Chill: 55°   Ceiling: 3000
Heat Index: 55°   Visibility: 6mi
Dew Point: 46°   Wind: 21mph
Humidity: 72%   Direction: 210°SSW
Pressure: 30.06"   Gusts: NA
Location:  52.81°N, 0.16°W
Report Text: EGXT 260850Z AUTO 21018KT 9999 // OVC030/// 13/08 Q1018
Loading
Personal Weather Stations






























Interactive Weather Map
Tropical Storm Tracking
New forecast layout! Learn more

10-Day Weather Forecast

Advertisements
Track Severe Weather on mobile